Washington, District of Columbia
Traffic Map
Current Weather Conditions
Washington, District of Columbia
Few Clouds
Few Clouds
19°
Feels Like: 19°
Wind Chill: 19° Ceiling: Unl
Heat Index: 19° Visibility: 10mi
Dew Point: 11° Wind: 5mph
Humidity: 59% Direction: 20° (NNE)
Pressure: 30.04in Gusts: 0mph
Raw Report DataKDCA 170252Z 02004KT 10SM FEW085 19/11 A3004 RMK AO2 SLP172 T01940111 51012 $
Traffic Incident Summary
Active as of:
Severity:
Category:
InformationThere was an issue retrieving the traffic information for this location. Please try a different location or try again shortly.
Advertisements
Track Severe Weather on mobile